createdAt,value
2022-11-11T00:00:37.521Z,594.0000
2022-11-11T00:01:39.798Z,598.0000
2022-11-11T00:02:42.121Z,602.0000
2022-11-11T00:03:42.239Z,605.0000
2022-11-11T00:04:44.562Z,598.0000
2022-11-11T00:05:46.759Z,597.0000
2022-11-11T00:06:49.083Z,599.0000
2022-11-11T00:07:51.432Z,595.0000
2022-11-11T00:08:53.609Z,595.0000
2022-11-11T00:09:55.929Z,597.0000
2022-11-11T00:10:56.037Z,598.0000
2022-11-11T00:11:58.321Z,598.0000
2022-11-11T00:13:00.623Z,598.0000
2022-11-11T00:14:02.898Z,595.0000
2022-11-11T00:15:05.176Z,593.0000
2022-11-11T00:16:07.450Z,596.0000
2022-11-11T00:17:09.766Z,594.0000
2022-11-11T00:18:09.977Z,594.0000
2022-11-11T00:19:12.222Z,592.0000
2022-11-11T00:20:14.669Z,594.0000
2022-11-11T00:21:16.812Z,593.0000
2022-11-11T00:22:19.132Z,593.0000
2022-11-11T00:23:21.525Z,592.0000
2022-11-11T00:24:23.699Z,593.0000
2022-11-11T00:25:24.085Z,592.0000
2022-11-11T00:26:39.269Z,595.0000
2022-11-11T00:28:28.843Z,595.0000
2022-11-11T00:29:31.096Z,588.0000
2022-11-11T00:30:31.301Z,589.0000
2022-11-11T00:31:33.575Z,591.0000
2022-11-11T00:32:35.925Z,592.0000
2022-11-11T00:33:38.277Z,596.0000
2022-11-11T00:34:38.440Z,595.0000
2022-11-11T00:35:40.851Z,597.0000
2022-11-11T00:36:44.761Z,595.0000
2022-11-11T00:37:45.450Z,592.0000
2022-11-11T00:38:47.824Z,593.0000
2022-11-11T00:39:50.097Z,590.0000
2022-11-11T00:40:52.373Z,590.0000
2022-11-11T00:41:52.561Z,589.0000
2022-11-11T00:42:54.928Z,588.0000
2022-11-11T00:43:57.181Z,590.0000
2022-11-11T00:44:59.555Z,591.0000
2022-11-11T00:46:01.915Z,589.0000
2022-11-11T00:47:04.138Z,591.0000
2022-11-11T00:48:04.307Z,589.0000
2022-11-11T00:49:06.606Z,581.0000
2022-11-11T00:50:08.988Z,586.0000
2022-11-11T00:51:11.364Z,582.0000
2022-11-11T00:52:13.635Z,579.0000
2022-11-11T00:53:13.784Z,582.0000
2022-11-11T00:54:16.277Z,583.0000
2022-11-11T00:55:18.491Z,583.0000
2022-11-11T00:56:20.865Z,585.0000
2022-11-11T00:57:23.037Z,586.0000
2022-11-11T00:58:25.737Z,587.0000
2022-11-11T00:59:25.586Z,589.0000
2022-11-11T01:00:27.863Z,588.0000
2022-11-11T01:01:30.311Z,585.0000
2022-11-11T01:02:32.550Z,585.0000
2022-11-11T01:03:34.855Z,586.0000
2022-11-11T01:04:37.166Z,584.0000
2022-11-11T01:05:39.449Z,582.0000
2022-11-11T01:06:41.914Z,577.0000
2022-11-11T01:07:44.054Z,577.0000
2022-11-11T01:08:46.313Z,572.0000
2022-11-11T01:09:48.722Z,573.0000
2022-11-11T01:10:50.902Z,580.0000
2022-11-11T01:11:51.201Z,573.0000
2022-11-11T01:12:53.375Z,573.0000
2022-11-11T01:13:55.671Z,574.0000
2022-11-11T01:14:57.986Z,575.0000
2022-11-11T01:16:00.329Z,575.0000
2022-11-11T01:17:02.838Z,575.0000
2022-11-11T01:18:02.784Z,580.0000
2022-11-11T01:19:05.149Z,584.0000
2022-11-11T01:20:07.357Z,578.0000
2022-11-11T01:21:09.621Z,577.0000
2022-11-11T01:22:11.974Z,576.0000
2022-11-11T01:23:14.272Z,573.0000
2022-11-11T01:24:16.403Z,574.0000
2022-11-11T01:25:18.800Z,573.0000
2022-11-11T01:26:18.771Z,581.0000
2022-11-11T01:27:21.240Z,580.0000
2022-11-11T01:28:23.737Z,582.0000
2022-11-11T01:29:25.583Z,580.0000
2022-11-11T01:30:27.912Z,579.0000
2022-11-11T01:31:30.067Z,576.0000
2022-11-11T01:32:32.342Z,576.0000
2022-11-11T01:33:34.571Z,574.0000
2022-11-11T01:34:36.660Z,575.0000
2022-11-11T01:35:38.884Z,578.0000
2022-11-11T01:36:41.243Z,576.0000
2022-11-11T01:37:43.414Z,575.0000
2022-11-11T01:38:45.613Z,576.0000
2022-11-11T01:39:47.747Z,577.0000
2022-11-11T01:40:50.263Z,578.0000
2022-11-11T01:41:52.317Z,574.0000
2022-11-11T01:42:54.752Z,573.0000
2022-11-11T01:43:56.914Z,574.0000
2022-11-11T01:44:59.177Z,577.0000
2022-11-11T01:45:59.276Z,576.0000
2022-11-11T01:47:01.522Z,576.0000
2022-11-11T01:48:33.921Z,578.0000
2022-11-11T01:49:06.149Z,577.0000
2022-11-11T01:50:08.428Z,576.0000
2022-11-11T01:51:10.742Z,576.0000
2022-11-11T01:52:13.079Z,581.0000
2022-11-11T01:53:15.454Z,583.0000
2022-11-11T01:54:15.360Z,580.0000
2022-11-11T01:55:17.764Z,579.0000
2022-11-11T01:56:20.091Z,574.0000
2022-11-11T01:57:22.287Z,572.0000
2022-11-11T01:58:24.662Z,573.0000
2022-11-11T01:59:26.865Z,573.0000
2022-11-11T02:00:29.326Z,575.0000
2022-11-11T02:01:29.414Z,582.0000
2022-11-11T02:02:31.762Z,582.0000
2022-11-11T02:03:34.219Z,581.0000
2022-11-11T02:04:36.393Z,579.0000
2022-11-11T02:05:38.662Z,577.0000
2022-11-11T02:06:40.928Z,577.0000
2022-11-11T02:07:41.264Z,578.0000
2022-11-11T02:08:43.448Z,578.0000
2022-11-11T02:09:45.726Z,578.0000
2022-11-11T02:10:47.829Z,577.0000
2022-11-11T02:11:50.273Z,576.0000
2022-11-11T02:12:52.595Z,574.0000
2022-11-11T02:13:52.904Z,577.0000
2022-11-11T02:14:54.890Z,573.0000
2022-11-11T02:15:57.203Z,576.0000
2022-11-11T02:16:59.623Z,573.0000
2022-11-11T02:18:01.793Z,574.0000
2022-11-11T02:19:04.202Z,573.0000
2022-11-11T02:20:06.346Z,579.0000
2022-11-11T02:21:06.600Z,579.0000
2022-11-11T02:22:08.848Z,579.0000
2022-11-11T02:23:11.007Z,576.0000
2022-11-11T02:24:49.925Z,561.0000
2022-11-11T02:25:52.080Z,560.0000
2022-11-11T02:26:58.346Z,565.0000
2022-11-11T02:27:54.524Z,570.0000
2022-11-11T02:28:56.882Z,572.0000
2022-11-11T02:29:59.153Z,574.0000
2022-11-11T02:31:01.392Z,568.0000
2022-11-11T02:32:03.734Z,570.0000
2022-11-11T02:33:05.922Z,573.0000
2022-11-11T02:34:08.216Z,566.0000
2022-11-11T02:35:08.469Z,568.0000
2022-11-11T02:36:10.640Z,567.0000
2022-11-11T02:37:13.039Z,569.0000
2022-11-11T02:38:15.482Z,566.0000
2022-11-11T02:39:23.303Z,569.0000
2022-11-11T02:40:20.153Z,569.0000
2022-11-11T02:41:20.208Z,568.0000
2022-11-11T02:42:22.688Z,568.0000
2022-11-11T02:43:25.298Z,568.0000
2022-11-11T02:44:27.392Z,566.0000
2022-11-11T02:45:29.634Z,567.0000
2022-11-11T02:46:29.725Z,568.0000
2022-11-11T02:47:32.062Z,568.0000
2022-11-11T02:48:34.414Z,566.0000
2022-11-11T02:49:36.802Z,574.0000
2022-11-11T02:50:36.977Z,562.0000
2022-11-11T02:51:39.320Z,566.0000
2022-11-11T02:52:41.431Z,565.0000
2022-11-11T02:53:43.736Z,564.0000
2022-11-11T02:54:45.987Z,564.0000
2022-11-11T02:55:48.392Z,562.0000
2022-11-11T02:56:50.693Z,563.0000
2022-11-11T02:57:53.011Z,563.0000
2022-11-11T02:58:52.929Z,569.0000
2022-11-11T02:59:55.341Z,568.0000
2022-11-11T03:00:57.766Z,569.0000
2022-11-11T03:01:59.958Z,571.0000
2022-11-11T03:03:02.483Z,569.0000
2022-11-11T03:04:04.696Z,570.0000
2022-11-11T03:05:06.767Z,572.0000
2022-11-11T03:06:07.269Z,571.0000
2022-11-11T03:07:09.611Z,577.0000
2022-11-11T03:08:11.701Z,575.0000
2022-11-11T03:09:13.898Z,571.0000
2022-11-11T03:10:16.214Z,574.0000
2022-11-11T03:11:18.477Z,570.0000
2022-11-11T03:12:20.812Z,567.0000
2022-11-11T03:13:21.446Z,571.0000
2022-11-11T03:14:23.210Z,571.0000
2022-11-11T03:15:25.449Z,569.0000
2022-11-11T03:16:27.880Z,568.0000
2022-11-11T03:18:17.572Z,570.0000
2022-11-11T03:19:19.809Z,559.0000
2022-11-11T03:22:52.627Z,558.0000
2022-11-11T03:22:57.152Z,562.0000
2022-11-11T03:23:44.067Z,562.0000
2022-11-11T03:24:46.377Z,575.0000
2022-11-11T03:25:46.512Z,565.0000
2022-11-11T03:26:48.792Z,560.0000
2022-11-11T03:27:51.096Z,561.0000
2022-11-11T03:28:53.511Z,563.0000
2022-11-11T03:29:55.672Z,562.0000
2022-11-11T03:31:01.838Z,560.0000
2022-11-11T03:32:00.366Z,561.0000
2022-11-11T03:33:00.504Z,558.0000
2022-11-11T03:34:02.803Z,556.0000
2022-11-11T03:35:05.117Z,559.0000
2022-11-11T03:36:07.424Z,562.0000
2022-11-11T03:37:09.789Z,561.0000
2022-11-11T03:38:12.102Z,562.0000
2022-11-11T03:39:12.311Z,566.0000
2022-11-11T03:40:14.653Z,562.0000
2022-11-11T03:41:16.945Z,564.0000
2022-11-11T03:42:19.303Z,565.0000
2022-11-11T03:43:22.032Z,567.0000
2022-11-11T03:44:24.002Z,563.0000
2022-11-11T03:45:24.041Z,562.0000
2022-11-11T03:46:26.336Z,563.0000
2022-11-11T03:47:28.771Z,562.0000
2022-11-11T03:48:30.934Z,563.0000
2022-11-11T03:49:33.210Z,565.0000
2022-11-11T03:50:35.509Z,563.0000
2022-11-11T03:51:37.695Z,566.0000
2022-11-11T03:52:37.852Z,569.0000
2022-11-11T03:53:40.114Z,565.0000
2022-11-11T03:54:42.414Z,566.0000
2022-11-11T03:55:44.703Z,569.0000
2022-11-11T03:56:46.967Z,566.0000
2022-11-11T03:57:49.389Z,567.0000
2022-11-11T03:58:49.390Z,568.0000
2022-11-11T03:59:51.797Z,568.0000
2022-11-11T04:00:53.948Z,570.0000
2022-11-11T04:01:56.327Z,571.0000
2022-11-11T04:02:58.661Z,573.0000
2022-11-11T04:04:00.775Z,573.0000
2022-11-11T04:05:03.031Z,575.0000
2022-11-11T04:06:05.316Z,572.0000
2022-11-11T04:07:05.552Z,570.0000
2022-11-11T04:08:07.861Z,567.0000
2022-11-11T04:09:10.149Z,563.0000
2022-11-11T04:10:12.466Z,562.0000
2022-11-11T04:11:14.794Z,565.0000
2022-11-11T04:12:17.020Z,568.0000
2022-11-11T04:13:17.288Z,568.0000
2022-11-11T04:14:19.453Z,565.0000
2022-11-11T04:15:21.871Z,563.0000
2022-11-11T04:16:24.054Z,564.0000
2022-11-11T04:17:26.344Z,567.0000
2022-11-11T04:18:28.770Z,561.0000
2022-11-11T04:19:30.948Z,562.0000
2022-11-11T04:20:31.122Z,565.0000
2022-11-11T04:21:31.337Z,562.0000
2022-11-11T04:22:33.708Z,565.0000
2022-11-11T04:23:36.072Z,562.0000
2022-11-11T04:24:38.427Z,562.0000
2022-11-11T04:25:41.617Z,563.0000
2022-11-11T04:26:40.953Z,562.0000
2022-11-11T04:27:43.295Z,564.0000
2022-11-11T04:28:45.647Z,564.0000
2022-11-11T04:29:48.014Z,565.0000
2022-11-11T04:30:48.270Z,568.0000
2022-11-11T04:31:50.538Z,569.0000
2022-11-11T04:32:52.861Z,571.0000
2022-11-11T04:33:55.376Z,568.0000
2022-11-11T04:34:55.467Z,563.0000
2022-11-11T04:35:57.812Z,564.0000
2022-11-11T04:37:00.123Z,560.0000
2022-11-11T04:38:02.414Z,559.0000
2022-11-11T04:39:04.755Z,561.0000
2022-11-11T04:40:07.034Z,560.0000
2022-11-11T04:41:07.139Z,563.0000
2022-11-11T04:42:09.404Z,565.0000
2022-11-11T04:43:11.628Z,570.0000
2022-11-11T04:44:13.956Z,570.0000
2022-11-11T04:45:16.184Z,571.0000
2022-11-11T04:46:18.601Z,575.0000
2022-11-11T04:47:20.751Z,574.0000
2022-11-11T04:48:23.020Z,578.0000
2022-11-11T04:49:23.202Z,569.0000
2022-11-11T04:50:25.417Z,570.0000
2022-11-11T04:51:27.670Z,573.0000
2022-11-11T04:52:29.925Z,574.0000
2022-11-11T04:53:32.233Z,574.0000
2022-11-11T04:54:34.592Z,576.0000
2022-11-11T04:55:36.874Z,591.0000
2022-11-11T04:56:39.178Z,582.0000
2022-11-11T04:57:39.344Z,582.0000
2022-11-11T04:58:41.665Z,587.0000
2022-11-11T04:59:44.117Z,593.0000
2022-11-11T05:00:46.301Z,591.0000
2022-11-11T05:01:48.690Z,596.0000
2022-11-11T05:02:50.893Z,597.0000
2022-11-11T05:03:51.061Z,607.0000
2022-11-11T05:04:53.548Z,611.0000
2022-11-11T05:05:55.763Z,611.0000
2022-11-11T05:06:59.878Z,614.0000
2022-11-11T05:07:58.328Z,619.0000
2022-11-11T05:09:00.687Z,620.0000
2022-11-11T05:10:03.326Z,635.0000
2022-11-11T05:11:05.376Z,640.0000
2022-11-11T05:12:07.723Z,642.0000
2022-11-11T05:13:07.918Z,648.0000
2022-11-11T05:15:25.790Z,663.0000
2022-11-11T05:16:27.690Z,668.0000
2022-11-11T05:17:30.079Z,680.0000
2022-11-11T05:18:32.264Z,683.0000
2022-11-11T05:19:34.551Z,694.0000
2022-11-11T05:20:38.655Z,695.0000
2022-11-11T05:21:37.059Z,706.0000
2022-11-11T05:22:39.391Z,708.0000
2022-11-11T05:23:41.737Z,711.0000
2022-11-11T05:24:44.076Z,714.0000
2022-11-11T05:25:44.289Z,722.0000
2022-11-11T05:26:46.597Z,732.0000
2022-11-11T05:27:48.933Z,741.0000
2022-11-11T05:28:51.261Z,744.0000
2022-11-11T05:29:53.561Z,745.0000
2022-11-11T05:30:53.828Z,749.0000
2022-11-11T05:31:55.975Z,753.0000
2022-11-11T05:32:58.375Z,750.0000
2022-11-11T05:34:00.544Z,758.0000
2022-11-11T05:35:02.827Z,762.0000
2022-11-11T05:36:05.139Z,769.0000
2022-11-11T05:37:07.431Z,773.0000
2022-11-11T05:38:07.610Z,776.0000
2022-11-11T05:39:09.953Z,776.0000
2022-11-11T05:40:12.244Z,772.0000
2022-11-11T05:41:14.629Z,778.0000
2022-11-11T05:42:16.897Z,782.0000
2022-11-11T05:43:19.146Z,786.0000
2022-11-11T05:44:21.417Z,793.0000
2022-11-11T05:45:21.555Z,795.0000
2022-11-11T05:46:23.952Z,800.0000
2022-11-11T05:47:26.089Z,808.0000
2022-11-11T05:48:28.567Z,804.0000
2022-11-11T05:49:30.757Z,810.0000
2022-11-11T05:50:33.125Z,814.0000
2022-11-11T05:51:39.000Z,815.0000
2022-11-11T05:52:37.842Z,825.0000
2022-11-11T05:53:40.190Z,828.0000
2022-11-11T05:54:42.528Z,834.0000
2022-11-11T05:55:42.715Z,838.0000
2022-11-11T05:56:45.134Z,834.0000
2022-11-11T05:57:47.341Z,835.0000
2022-11-11T05:58:50.838Z,840.0000
2022-11-11T05:59:51.949Z,847.0000
2022-11-11T06:00:54.265Z,851.0000
2022-11-11T06:01:54.623Z,849.0000
2022-11-11T06:02:56.830Z,848.0000
2022-11-11T06:03:59.269Z,845.0000
2022-11-11T06:05:01.438Z,849.0000
2022-11-11T06:06:03.766Z,848.0000
2022-11-11T06:07:06.095Z,844.0000
2022-11-11T06:08:08.286Z,842.0000
2022-11-11T06:09:10.596Z,843.0000
2022-11-11T06:10:10.738Z,847.0000
2022-11-11T06:11:13.007Z,851.0000
2022-11-11T06:12:15.400Z,852.0000
2022-11-11T06:13:17.550Z,854.0000
2022-11-11T06:14:19.852Z,863.0000
2022-11-11T06:15:22.153Z,859.0000
2022-11-11T06:16:22.307Z,852.0000
2022-11-11T06:17:24.625Z,854.0000
2022-11-11T06:18:30.933Z,855.0000
2022-11-11T06:19:29.289Z,855.0000
2022-11-11T06:20:31.487Z,861.0000
2022-11-11T06:21:33.806Z,861.0000
2022-11-11T06:22:33.993Z,860.0000
2022-11-11T06:23:36.259Z,854.0000
2022-11-11T06:24:38.600Z,860.0000
2022-11-11T06:25:40.855Z,862.0000
2022-11-11T06:26:43.159Z,862.0000
2022-11-11T06:27:45.513Z,866.0000
2022-11-11T06:28:45.619Z,861.0000
2022-11-11T06:29:47.905Z,864.0000
2022-11-11T06:30:51.538Z,868.0000
2022-11-11T06:31:52.526Z,867.0000
2022-11-11T06:32:54.991Z,867.0000
2022-11-11T06:33:57.183Z,866.0000
2022-11-11T06:34:57.432Z,864.0000
2022-11-11T06:35:59.626Z,867.0000
2022-11-11T06:37:01.935Z,863.0000
2022-11-11T06:38:04.375Z,872.0000
2022-11-11T06:39:06.536Z,869.0000
2022-11-11T06:40:08.786Z,869.0000
2022-11-11T06:41:11.067Z,872.0000
2022-11-11T06:42:11.216Z,871.0000
2022-11-11T06:43:13.562Z,871.0000
2022-11-11T06:44:14.716Z,870.0000
2022-11-11T06:45:17.072Z,870.0000
2022-11-11T06:46:19.409Z,869.0000
2022-11-11T06:47:21.744Z,865.0000
2022-11-11T06:48:24.252Z,862.0000
2022-11-11T06:49:26.457Z,864.0000
2022-11-11T06:50:28.958Z,868.0000
2022-11-11T06:51:31.197Z,870.0000
2022-11-11T06:52:31.412Z,867.0000
2022-11-11T06:53:33.897Z,867.0000
2022-11-11T06:54:36.163Z,861.0000
2022-11-11T06:55:36.352Z,863.0000
2022-11-11T06:56:38.716Z,860.0000
2022-11-11T06:57:41.072Z,860.0000
2022-11-11T06:58:41.406Z,864.0000
2022-11-11T06:59:43.632Z,864.0000
2022-11-11T07:00:46.007Z,865.0000
2022-11-11T07:01:48.319Z,864.0000
2022-11-11T07:02:50.697Z,862.0000
2022-11-11T07:03:53.062Z,865.0000
2022-11-11T07:04:53.248Z,861.0000
2022-11-11T07:05:58.961Z,859.0000
2022-11-11T07:06:57.949Z,861.0000
2022-11-11T07:08:00.251Z,859.0000
2022-11-11T07:09:02.591Z,861.0000
2022-11-11T07:10:04.887Z,861.0000
2022-11-11T07:11:12.541Z,860.0000
2022-11-11T07:12:07.451Z,855.0000
2022-11-11T07:13:09.815Z,848.0000
2022-11-11T07:14:12.221Z,852.0000
2022-11-11T07:15:14.496Z,850.0000
2022-11-11T07:16:16.824Z,848.0000
2022-11-11T07:17:19.138Z,850.0000
2022-11-11T07:18:21.695Z,841.0000
2022-11-11T07:19:23.969Z,843.0000
2022-11-11T07:20:25.961Z,846.0000
2022-11-11T07:21:26.207Z,847.0000
2022-11-11T07:22:28.416Z,844.0000
2022-11-11T07:23:30.731Z,843.0000
2022-11-11T07:24:33.086Z,843.0000
2022-11-11T07:25:35.323Z,832.0000
2022-11-11T07:26:37.564Z,833.0000
2022-11-11T07:27:39.852Z,839.0000
2022-11-11T07:28:40.016Z,834.0000
2022-11-11T07:29:42.300Z,828.0000
2022-11-11T07:30:44.525Z,831.0000
2022-11-11T07:31:46.780Z,829.0000
2022-11-11T07:32:46.927Z,831.0000
2022-11-11T07:33:49.235Z,828.0000
2022-11-11T07:34:51.553Z,823.0000
2022-11-11T07:35:53.776Z,824.0000
2022-11-11T07:36:54.039Z,789.0000
2022-11-11T07:37:56.214Z,767.0000
2022-11-11T07:38:58.523Z,773.0000
2022-11-11T07:40:00.876Z,783.0000
2022-11-11T07:41:03.145Z,792.0000
2022-11-11T07:42:05.472Z,789.0000
2022-11-11T07:43:07.743Z,797.0000
2022-11-11T07:44:48.062Z,799.0000
2022-11-11T07:45:44.789Z,801.0000
2022-11-11T07:46:46.913Z,804.0000
2022-11-11T07:47:49.179Z,801.0000
2022-11-11T07:48:51.395Z,801.0000
2022-11-11T07:49:53.632Z,800.0000
2022-11-11T07:50:55.924Z,796.0000
2022-11-11T07:51:56.108Z,798.0000
2022-11-11T07:52:58.247Z,792.0000
2022-11-11T07:54:00.487Z,790.0000
2022-11-11T07:55:02.683Z,790.0000
2022-11-11T07:56:04.985Z,786.0000
2022-11-11T07:57:07.210Z,786.0000
2022-11-11T07:58:10.514Z,785.0000
2022-11-11T07:59:12.753Z,782.0000
2022-11-11T08:00:14.999Z,782.0000
2022-11-11T08:01:17.394Z,783.0000
2022-11-11T08:02:19.557Z,786.0000
2022-11-11T08:03:19.722Z,783.0000
2022-11-11T08:04:22.036Z,784.0000
2022-11-11T08:05:24.361Z,786.0000
2022-11-11T08:06:26.727Z,794.0000
2022-11-11T08:07:29.120Z,777.0000
2022-11-11T08:08:31.279Z,789.0000
2022-11-11T08:09:33.613Z,780.0000
2022-11-11T08:10:35.948Z,785.0000
2022-11-11T08:11:38.420Z,782.0000
2022-11-11T08:12:40.645Z,788.0000
2022-11-11T08:13:42.993Z,778.0000
2022-11-11T08:14:45.325Z,782.0000
2022-11-11T08:15:45.507Z,779.0000
2022-11-11T08:16:47.808Z,774.0000
2022-11-11T08:17:50.033Z,775.0000
2022-11-11T08:18:52.315Z,769.0000
2022-11-11T08:19:52.503Z,772.0000
2022-11-11T08:20:55.449Z,769.0000
2022-11-11T08:21:57.239Z,774.0000
2022-11-11T08:23:32.986Z,773.0000
2022-11-11T08:25:03.886Z,769.0000
2022-11-11T08:26:04.394Z,769.0000
2022-11-11T08:27:06.836Z,769.0000
2022-11-11T08:28:08.955Z,764.0000
2022-11-11T08:29:11.237Z,762.0000
2022-11-11T08:30:11.378Z,762.0000
2022-11-11T08:31:13.668Z,761.0000
2022-11-11T08:32:15.963Z,758.0000
2022-11-11T08:33:32.695Z,758.0000
2022-11-11T08:34:18.360Z,753.0000
2022-11-11T08:35:20.654Z,753.0000
2022-11-11T08:36:22.951Z,754.0000
2022-11-11T08:37:25.239Z,750.0000
2022-11-11T08:38:27.626Z,750.0000
2022-11-11T08:39:29.780Z,747.0000
2022-11-11T08:40:32.010Z,747.0000
2022-11-11T08:41:34.273Z,744.0000
2022-11-11T08:42:36.700Z,743.0000
2022-11-11T08:43:38.881Z,751.0000
2022-11-11T08:44:41.159Z,749.0000
2022-11-11T08:45:43.387Z,746.0000
2022-11-11T08:46:45.649Z,749.0000
2022-11-11T08:47:47.928Z,742.0000
2022-11-11T08:48:48.073Z,745.0000
2022-11-11T08:49:50.374Z,742.0000
2022-11-11T08:50:52.716Z,739.0000
2022-11-11T08:51:55.028Z,739.0000
2022-11-11T08:52:57.373Z,733.0000
2022-11-11T08:53:59.765Z,730.0000
2022-11-11T08:55:01.979Z,728.0000
2022-11-11T08:56:02.167Z,730.0000
2022-11-11T08:57:04.498Z,734.0000
2022-11-11T08:58:06.972Z,731.0000
2022-11-11T08:59:07.031Z,731.0000
2022-11-11T09:00:09.384Z,724.0000
2022-11-11T09:01:11.824Z,723.0000
2022-11-11T09:02:13.977Z,719.0000
2022-11-11T09:03:16.328Z,714.0000
2022-11-11T09:04:51.552Z,716.0000
2022-11-11T09:05:20.617Z,722.0000
2022-11-11T09:06:22.859Z,722.0000
2022-11-11T09:07:25.070Z,722.0000
2022-11-11T09:08:27.389Z,719.0000
2022-11-11T09:09:59.308Z,694.0000
2022-11-11T09:11:01.969Z,717.0000
2022-11-11T09:12:04.184Z,707.0000
2022-11-11T09:13:06.430Z,704.0000
2022-11-11T09:14:06.700Z,699.0000
2022-11-11T09:15:08.836Z,699.0000
2022-11-11T09:16:11.156Z,701.0000
2022-11-11T09:17:13.481Z,697.0000
2022-11-11T09:18:15.804Z,702.0000
2022-11-11T09:19:18.173Z,705.0000
2022-11-11T09:20:23.670Z,700.0000
2022-11-11T09:21:20.624Z,694.0000
2022-11-11T09:22:22.945Z,687.0000
2022-11-11T09:23:25.644Z,689.0000
2022-11-11T09:24:27.709Z,689.0000
2022-11-11T09:25:30.027Z,688.0000
2022-11-11T09:26:30.061Z,687.0000
2022-11-11T09:27:32.389Z,684.0000
2022-11-11T09:28:34.688Z,682.0000
2022-11-11T09:29:37.074Z,679.0000
2022-11-11T09:30:39.356Z,676.0000
2022-11-11T09:31:45.221Z,677.0000
2022-11-11T09:32:41.741Z,676.0000
2022-11-11T09:33:44.057Z,675.0000
2022-11-11T09:34:46.455Z,677.0000
2022-11-11T09:35:48.653Z,682.0000
2022-11-11T09:36:50.973Z,678.0000
2022-11-11T09:37:53.251Z,679.0000
2022-11-11T09:38:55.567Z,678.0000
2022-11-11T09:39:55.755Z,678.0000
2022-11-11T09:40:58.181Z,672.0000
2022-11-11T09:42:06.319Z,676.0000
2022-11-11T09:43:00.494Z,670.0000
2022-11-11T09:44:02.770Z,672.0000
2022-11-11T09:45:05.063Z,666.0000
2022-11-11T09:46:07.342Z,666.0000
2022-11-11T09:47:09.648Z,661.0000
2022-11-11T09:48:11.977Z,660.0000
2022-11-11T09:49:12.133Z,657.0000
2022-11-11T09:50:14.573Z,648.0000
2022-11-11T09:51:16.731Z,645.0000
2022-11-11T09:52:19.031Z,649.0000
2022-11-11T09:53:21.301Z,654.0000
2022-11-11T09:54:23.531Z,659.0000
2022-11-11T09:55:25.779Z,657.0000
2022-11-11T09:56:33.161Z,660.0000
2022-11-11T09:57:28.120Z,661.0000
2022-11-11T09:58:30.386Z,651.0000
2022-11-11T09:59:32.644Z,646.0000
2022-11-11T10:00:34.974Z,644.0000
2022-11-11T10:01:37.157Z,641.0000
2022-11-11T10:02:39.419Z,636.0000
2022-11-11T10:03:41.669Z,642.0000
2022-11-11T10:04:43.939Z,645.0000
2022-11-11T10:05:44.082Z,648.0000
2022-11-11T10:06:46.359Z,649.0000
2022-11-11T10:07:48.601Z,646.0000
2022-11-11T10:08:50.837Z,646.0000
2022-11-11T10:09:53.066Z,644.0000
2022-11-11T10:10:55.444Z,643.0000
2022-11-11T10:11:57.714Z,642.0000
2022-11-11T10:12:59.872Z,643.0000
2022-11-11T10:14:02.174Z,640.0000
2022-11-11T10:15:02.343Z,639.0000
2022-11-11T10:16:04.683Z,639.0000
2022-11-11T10:17:06.950Z,639.0000
2022-11-11T10:18:17.131Z,634.0000
2022-11-11T10:18:22.150Z,633.0000
2022-11-11T10:19:22.328Z,626.0000
2022-11-11T10:20:24.598Z,630.0000
2022-11-11T10:21:26.928Z,631.0000
2022-11-11T10:22:29.191Z,626.0000
2022-11-11T10:23:31.459Z,620.0000
2022-11-11T10:24:37.729Z,623.0000
2022-11-11T10:25:35.993Z,631.0000
2022-11-11T10:26:36.171Z,635.0000
2022-11-11T10:27:38.552Z,639.0000
2022-11-11T10:28:40.735Z,624.0000
2022-11-11T10:29:43.084Z,551.0000
2022-11-11T10:30:45.440Z,527.0000
2022-11-11T10:31:47.831Z,486.0000
2022-11-11T10:32:48.036Z,498.0000
2022-11-11T10:33:50.431Z,471.0000
2022-11-11T10:34:52.830Z,447.0000
2022-11-11T10:35:55.231Z,468.0000
2022-11-11T10:36:55.522Z,406.0000
2022-11-11T10:37:57.883Z,421.0000
2022-11-11T10:39:00.273Z,462.0000
2022-11-11T10:40:02.700Z,472.0000
2022-11-11T10:41:02.938Z,515.0000
2022-11-11T10:42:05.358Z,530.0000
2022-11-11T10:43:07.774Z,532.0000
2022-11-11T10:44:10.008Z,538.0000
2022-11-11T10:45:12.373Z,545.0000
2022-11-11T10:46:12.598Z,552.0000
2022-11-11T10:47:14.878Z,554.0000
2022-11-11T10:48:17.166Z,556.0000
2022-11-11T10:49:19.679Z,558.0000
2022-11-11T10:50:21.898Z,555.0000
2022-11-11T10:51:22.107Z,557.0000
2022-11-11T10:52:24.583Z,564.0000
2022-11-11T10:53:26.821Z,565.0000
2022-11-11T10:54:29.133Z,567.0000
2022-11-11T10:56:25.232Z,563.0000
2022-11-11T10:57:27.494Z,560.0000
2022-11-11T10:58:29.891Z,565.0000
2022-11-11T10:59:32.080Z,565.0000
2022-11-11T11:00:36.362Z,566.0000
2022-11-11T11:01:36.658Z,566.0000
2022-11-11T11:02:39.078Z,563.0000
2022-11-11T11:03:39.125Z,562.0000
2022-11-11T11:04:41.455Z,566.0000
2022-11-11T11:05:43.776Z,566.0000
2022-11-11T11:06:46.174Z,568.0000
2022-11-11T11:07:48.561Z,566.0000
2022-11-11T11:08:48.614Z,563.0000
2022-11-11T11:09:50.939Z,571.0000
2022-11-11T11:10:53.388Z,569.0000
2022-11-11T11:11:55.618Z,569.0000
2022-11-11T11:12:58.091Z,567.0000
2022-11-11T11:13:58.243Z,570.0000
2022-11-11T11:15:00.456Z,568.0000
2022-11-11T11:16:02.791Z,566.0000
2022-11-11T11:17:05.119Z,568.0000
2022-11-11T11:18:07.481Z,567.0000
2022-11-11T11:19:07.640Z,567.0000
2022-11-11T11:20:09.959Z,567.0000
2022-11-11T11:21:12.272Z,568.0000
2022-11-11T11:22:14.595Z,568.0000
2022-11-11T11:23:16.955Z,567.0000
2022-11-11T11:24:19.236Z,568.0000
2022-11-11T11:25:19.407Z,570.0000
2022-11-11T11:26:21.719Z,567.0000
2022-11-11T11:27:24.040Z,567.0000
2022-11-11T11:28:26.553Z,569.0000
2022-11-11T11:29:28.795Z,566.0000
2022-11-11T11:30:30.966Z,566.0000
2022-11-11T11:31:31.120Z,567.0000
2022-11-11T11:32:33.398Z,570.0000
2022-11-11T11:33:35.680Z,569.0000
2022-11-11T11:34:37.957Z,567.0000
2022-11-11T11:35:40.246Z,572.0000
2022-11-11T11:36:42.570Z,575.0000
2022-11-11T11:37:42.742Z,576.0000
2022-11-11T11:38:45.093Z,578.0000
2022-11-11T11:39:47.350Z,575.0000
2022-11-11T11:40:49.621Z,576.0000
2022-11-11T11:41:51.919Z,574.0000
2022-11-11T11:42:54.271Z,580.0000
2022-11-11T11:43:54.513Z,577.0000
2022-11-11T11:44:56.945Z,581.0000
2022-11-11T11:46:01.487Z,577.0000
2022-11-11T11:47:01.469Z,577.0000
2022-11-11T11:48:29.972Z,590.0000
2022-11-11T11:49:06.125Z,582.0000
2022-11-11T11:50:06.258Z,581.0000
2022-11-11T11:51:08.588Z,579.0000
2022-11-11T11:52:10.887Z,578.0000
2022-11-11T11:53:13.197Z,580.0000
2022-11-11T11:54:15.643Z,584.0000
2022-11-11T11:55:17.793Z,582.0000
2022-11-11T11:56:17.942Z,588.0000
2022-11-11T11:57:20.288Z,585.0000
2022-11-11T11:58:23.077Z,590.0000
2022-11-11T11:59:25.035Z,585.0000
2022-11-11T12:00:27.375Z,585.0000
2022-11-11T12:01:27.450Z,583.0000
2022-11-11T12:02:29.901Z,588.0000
2022-11-11T12:03:32.107Z,583.0000
2022-11-11T12:04:37.237Z,589.0000
2022-11-11T12:05:36.562Z,590.0000
2022-11-11T12:06:38.819Z,591.0000
2022-11-11T12:07:40.974Z,582.0000
2022-11-11T12:08:41.063Z,585.0000
2022-11-11T12:09:43.330Z,586.0000
2022-11-11T12:10:45.510Z,585.0000
2022-11-11T12:11:47.762Z,589.0000
2022-11-11T12:12:50.037Z,583.0000
2022-11-11T12:13:52.317Z,577.0000
2022-11-11T12:14:54.624Z,579.0000